createdAt,value
2023-04-03T00:01:01.149Z,7.22
2023-04-03T00:03:28.217Z,6.53
2023-04-03T00:05:55.803Z,6.68
2023-04-03T00:08:22.805Z,4.65
2023-04-03T00:10:49.681Z,8.20
2023-04-03T00:13:16.420Z,10.70
2023-04-03T00:15:43.419Z,4.88
2023-04-03T00:18:10.570Z,10.80
2023-04-03T00:20:38.133Z,6.72
2023-04-03T00:23:05.146Z,6.90
2023-04-03T00:25:31.964Z,7.20
2023-04-03T00:27:58.643Z,6.32
2023-04-03T00:30:25.662Z,8.27
2023-04-03T00:32:53.376Z,4.22
2023-04-03T00:35:21.416Z,6.90
2023-04-03T00:37:48.145Z,7.80
2023-04-03T00:40:17.176Z,8.13
2023-04-03T00:42:44.944Z,4.30
2023-04-03T00:45:32.980Z,4.53
2023-04-03T00:48:02.258Z,7.22
2023-04-03T00:50:31.337Z,4.03
2023-04-03T00:52:59.414Z,6.40
2023-04-03T00:55:27.193Z,16.80
2023-04-03T00:57:56.238Z,7.97
2023-04-03T01:00:24.772Z,9.40
2023-04-03T01:02:52.779Z,11.20
2023-04-03T01:05:21.760Z,5.10
2023-04-03T01:07:50.603Z,7.22
2023-04-03T01:10:19.136Z,7.60
2023-04-03T01:12:47.589Z,8.38
2023-04-03T01:15:36.076Z,10.88
2023-04-03T01:18:03.809Z,8.25
2023-04-03T01:20:34.229Z,6.78
2023-04-03T01:23:10.138Z,9.68
2023-04-03T01:25:38.599Z,10.48
2023-04-03T01:28:07.931Z,8.35
2023-04-03T01:30:42.381Z,6.72
2023-04-03T01:33:09.067Z,7.03
2023-04-03T01:35:36.051Z,6.13
2023-04-03T01:38:02.760Z,6.68
2023-04-03T01:40:29.412Z,7.57
2023-04-03T01:42:56.122Z,6.88
2023-04-03T01:45:22.874Z,7.65
2023-04-03T01:47:49.830Z,6.68
2023-04-03T01:50:16.483Z,7.55
2023-04-03T01:52:43.133Z,5.25
2023-04-03T01:55:10.024Z,9.40
2023-04-03T01:57:36.737Z,11.15
2023-04-03T02:00:04.641Z,5.78
2023-04-03T02:02:31.338Z,9.85
2023-04-03T02:04:57.974Z,6.63
2023-04-03T02:07:24.666Z,9.95
2023-04-03T02:09:51.354Z,8.02
2023-04-03T02:12:18.276Z,6.15
2023-04-03T02:14:44.961Z,10.93
2023-04-03T02:17:11.602Z,4.63
2023-04-03T02:19:38.380Z,7.60
2023-04-03T02:22:06.357Z,9.65
2023-04-03T02:24:33.534Z,5.28
2023-04-03T02:27:00.769Z,5.97
2023-04-03T02:29:27.517Z,12.25
2023-04-03T02:31:54.179Z,10.38
2023-04-03T02:34:20.964Z,11.60
2023-04-03T02:36:47.669Z,8.63
2023-04-03T02:39:14.853Z,9.15
2023-04-03T02:41:41.523Z,10.90
2023-04-03T02:44:10.713Z,6.97
2023-04-03T02:46:37.593Z,7.75
2023-04-03T02:49:04.802Z,7.70
2023-04-03T02:51:31.807Z,9.68
2023-04-03T02:53:58.442Z,6.95
2023-04-03T02:56:25.117Z,9.70
2023-04-03T02:58:51.793Z,8.60
2023-04-03T03:01:18.914Z,11.25
2023-04-03T03:03:45.704Z,6.80
2023-04-03T03:06:15.811Z,8.20
2023-04-03T03:08:42.911Z,7.00
2023-04-03T03:11:10.445Z,12.18
2023-04-03T03:13:37.437Z,9.25
2023-04-03T03:16:04.313Z,6.32
2023-04-03T03:18:31.631Z,10.35
2023-04-03T03:21:00.258Z,6.28
2023-04-03T03:23:28.898Z,5.47
2023-04-03T03:26:00.814Z,5.13
2023-04-03T03:28:27.535Z,7.38
2023-04-03T03:30:54.577Z,8.73
2023-04-03T03:33:21.242Z,7.53
2023-04-03T03:35:47.942Z,6.32
2023-04-03T03:38:14.671Z,8.13
2023-04-03T03:40:41.354Z,15.98
2023-04-03T03:43:08.152Z,10.52
2023-04-03T03:45:35.228Z,7.72
2023-04-03T03:48:03.061Z,11.55
2023-04-03T03:50:29.760Z,6.95
2023-04-03T03:52:56.484Z,10.07
2023-04-03T03:55:23.272Z,7.32
2023-04-03T03:57:50.084Z,6.28
2023-04-03T04:00:17.213Z,10.75
2023-04-03T04:02:44.123Z,14.35
2023-04-03T04:05:11.077Z,7.65
2023-04-03T04:07:37.831Z,8.35
2023-04-03T04:10:05.600Z,13.55
2023-04-03T04:12:32.319Z,9.38
2023-04-03T04:14:58.979Z,12.65
2023-04-03T04:17:25.697Z,11.35
2023-04-03T04:19:52.387Z,10.15
2023-04-03T04:22:19.141Z,6.43
2023-04-03T04:24:45.798Z,10.43
2023-04-03T04:27:12.457Z,11.30
2023-04-03T04:29:39.106Z,10.25
2023-04-03T04:32:05.863Z,23.95
2023-04-03T04:34:32.670Z,7.53
2023-04-03T04:36:59.426Z,9.68
2023-04-03T04:39:26.551Z,6.10
2023-04-03T04:41:53.322Z,10.10
2023-04-03T04:44:21.164Z,8.32
2023-04-03T04:46:47.852Z,8.18
2023-04-03T04:49:14.481Z,11.45
2023-04-03T04:51:50.967Z,9.82
2023-04-03T04:54:18.558Z,9.68
2023-04-03T04:56:46.518Z,9.27
2023-04-03T04:59:13.239Z,11.57
2023-04-03T05:01:40.470Z,6.60
2023-04-03T05:04:10.579Z,10.32
2023-04-03T05:06:37.206Z,6.30
2023-04-03T05:09:03.927Z,8.73
2023-04-03T05:11:31.122Z,9.45
2023-04-03T05:13:57.740Z,11.23
2023-04-03T05:16:24.603Z,8.43
2023-04-03T05:18:51.368Z,8.98
2023-04-03T05:21:19.319Z,6.97
2023-04-03T05:23:46.321Z,11.10
2023-04-03T05:26:13.373Z,9.57
2023-04-03T05:28:40.083Z,10.18
2023-04-03T05:31:06.845Z,17.50
2023-04-03T05:33:33.689Z,10.48
2023-04-03T05:36:04.608Z,8.18
2023-04-03T05:38:31.659Z,13.57
2023-04-03T05:40:58.287Z,15.85
2023-04-03T05:43:25.031Z,14.10
2023-04-03T05:45:53.234Z,7.95
2023-04-03T05:48:20.026Z,6.97
2023-04-03T05:50:49.793Z,12.38
2023-04-03T05:53:28.864Z,14.10
2023-04-03T05:55:55.831Z,8.68
2023-04-03T05:58:22.500Z,9.13
2023-04-03T06:00:49.591Z,15.93
2023-04-03T06:03:16.873Z,11.32
2023-04-03T06:05:44.018Z,7.55
2023-04-03T06:08:10.794Z,11.45
2023-04-03T06:10:37.595Z,9.82
2023-04-03T06:13:04.414Z,10.57
2023-04-03T06:15:31.382Z,8.85
2023-04-03T06:17:58.086Z,10.18
2023-04-03T06:20:25.733Z,9.15
2023-04-03T06:22:52.605Z,16.23
2023-04-03T06:25:20.074Z,14.38
2023-04-03T06:27:46.917Z,8.93
2023-04-03T06:30:14.200Z,8.98
2023-04-03T06:32:41.522Z,10.20
2023-04-03T06:35:08.639Z,12.70
2023-04-03T06:37:35.574Z,8.50
2023-04-03T06:40:02.569Z,18.95
2023-04-03T06:42:29.263Z,11.88
2023-04-03T06:44:56.282Z,8.00
2023-04-03T06:47:22.894Z,8.55
2023-04-03T06:49:49.487Z,8.00
2023-04-03T06:52:16.144Z,7.10
2023-04-03T06:54:42.812Z,12.13
2023-04-03T06:57:09.642Z,10.30
2023-04-03T06:59:37.640Z,10.90
2023-04-03T07:02:04.872Z,11.82
2023-04-03T07:04:31.756Z,9.65
2023-04-03T07:06:58.478Z,8.82
2023-04-03T07:09:25.665Z,6.65
2023-04-03T07:11:52.322Z,7.90
2023-04-03T07:14:18.962Z,9.77
2023-04-03T07:16:45.625Z,8.98
2023-04-03T07:19:12.554Z,11.70
2023-04-03T07:21:39.246Z,7.88
2023-04-03T07:24:06.127Z,14.95
2023-04-03T07:26:32.767Z,13.93
2023-04-03T07:29:00.726Z,11.75
2023-04-03T07:31:27.378Z,7.82
2023-04-03T07:33:54.104Z,7.82
2023-04-03T07:36:22.936Z,7.90
2023-04-03T07:38:50.329Z,9.27
2023-04-03T07:41:19.215Z,8.52
2023-04-03T07:43:47.622Z,8.93
2023-04-03T07:46:14.239Z,9.77
2023-04-03T07:48:41.183Z,9.35
2023-04-03T07:51:08.124Z,9.57
2023-04-03T07:53:34.727Z,9.40
2023-04-03T07:56:02.590Z,7.70
2023-04-03T07:58:29.577Z,12.30
2023-04-03T08:00:56.325Z,13.27
2023-04-03T08:03:23.723Z,13.57
2023-04-03T08:05:51.358Z,9.98
2023-04-03T08:08:22.293Z,11.40
2023-04-03T08:10:54.552Z,13.00
2023-04-03T08:13:21.902Z,15.40
2023-04-03T08:15:48.859Z,11.63
2023-04-03T08:18:17.094Z,11.55
2023-04-03T08:20:44.167Z,11.88
2023-04-03T08:23:11.421Z,9.95
2023-04-03T08:25:42.260Z,8.73
2023-04-03T08:28:10.689Z,9.50
2023-04-03T08:30:39.899Z,7.18
2023-04-03T08:33:07.215Z,9.55
2023-04-03T08:35:35.291Z,12.02
2023-04-03T08:38:03.000Z,12.90
2023-04-03T08:40:29.716Z,10.05
2023-04-03T08:43:20.710Z,10.55
2023-04-03T08:45:52.548Z,9.85
2023-04-03T08:48:28.629Z,18.95
2023-04-03T08:51:03.324Z,16.55
2023-04-03T08:53:35.160Z,12.52
2023-04-03T08:56:09.775Z,11.15
2023-04-03T08:58:48.074Z,8.38
2023-04-03T09:01:25.983Z,15.38
2023-04-03T09:03:52.761Z,16.33
2023-04-03T09:06:33.611Z,14.07
2023-04-03T09:09:09.254Z,10.93
2023-04-03T09:11:48.330Z,12.45
2023-04-03T09:14:33.202Z,10.85
2023-04-03T09:17:04.384Z,10.68
2023-04-03T09:19:40.736Z,11.50
2023-04-03T09:22:17.518Z,10.98
2023-04-03T09:24:53.676Z,14.75
2023-04-03T09:27:20.872Z,13.32
2023-04-03T09:29:47.883Z,12.55
2023-04-03T09:32:36.078Z,11.55
2023-04-03T09:35:20.610Z,16.10
2023-04-03T09:37:52.959Z,14.00
2023-04-03T09:40:36.468Z,13.55
2023-04-03T09:43:19.879Z,15.48
2023-04-03T09:45:48.431Z,13.93
2023-04-03T09:48:16.479Z,12.48
2023-04-03T09:50:49.932Z,13.70
2023-04-03T09:53:29.719Z,18.02
2023-04-03T09:55:56.661Z,11.35
2023-04-03T09:58:46.838Z,14.32
2023-04-03T10:01:35.441Z,9.57
2023-04-03T10:04:11.373Z,17.50
2023-04-03T10:06:49.956Z,12.48
2023-04-03T10:09:23.917Z,13.45
2023-04-03T10:12:07.872Z,13.48
2023-04-03T10:14:37.102Z,12.80
2023-04-03T10:17:42.977Z,13.60
2023-04-03T10:20:31.534Z,11.02
2023-04-03T10:23:27.173Z,12.90
2023-04-03T10:25:53.742Z,14.07
2023-04-03T10:28:43.960Z,9.07
2023-04-03T10:31:26.517Z,10.60
2023-04-03T10:34:02.482Z,15.87
2023-04-03T10:36:40.776Z,19.20
2023-04-03T10:39:11.185Z,10.15
2023-04-03T10:41:55.930Z,10.88
2023-04-03T10:44:46.302Z,11.63
2023-04-03T10:47:25.829Z,16.65
2023-04-03T10:50:00.345Z,17.30
2023-04-03T10:52:54.100Z,16.60
2023-04-03T10:58:07.133Z,8.50
2023-04-03T11:00:44.759Z,10.63
2023-04-03T11:03:31.321Z,12.82
2023-04-03T11:06:01.195Z,18.40
2023-04-03T11:08:31.478Z,13.20
2023-04-03T11:11:03.113Z,14.73
2023-04-03T11:13:43.679Z,9.40
2023-04-03T11:16:14.871Z,15.18
2023-04-03T11:18:53.594Z,11.98
2023-04-03T11:21:35.844Z,11.63
2023-04-03T11:24:05.797Z,12.90
2023-04-03T11:26:40.085Z,8.20
2023-04-03T11:29:34.300Z,13.27
2023-04-03T11:32:14.639Z,7.50
2023-04-03T11:34:45.769Z,12.15
2023-04-03T11:37:35.244Z,18.83
2023-04-03T11:40:05.027Z,11.15
2023-04-03T11:42:40.651Z,11.05
2023-04-03T11:45:55.815Z,13.30
2023-04-03T11:48:33.064Z,9.77
2023-04-03T11:51:01.970Z,13.00
2023-04-03T11:53:37.263Z,11.85
2023-04-03T11:56:25.712Z,12.80
2023-04-03T11:59:25.347Z,11.82
2023-04-03T12:02:01.607Z,13.70
2023-04-03T12:04:29.977Z,11.85
2023-04-03T12:07:05.402Z,12.15
2023-04-03T12:09:59.288Z,14.57
2023-04-03T12:12:30.839Z,13.65
2023-04-03T12:15:18.660Z,12.75
2023-04-03T12:17:45.529Z,11.68
2023-04-03T12:20:50.081Z,13.13
2023-04-03T12:23:33.578Z,11.77
2023-04-03T12:28:28.700Z,9.65
2023-04-03T12:30:55.859Z,13.32
2023-04-03T12:33:49.021Z,13.00
2023-04-03T12:36:29.802Z,13.27
2023-04-03T12:39:36.662Z,13.95
2023-04-03T12:42:23.458Z,15.65
2023-04-03T12:45:22.316Z,8.93
2023-04-03T12:47:55.062Z,9.98
2023-04-03T12:50:26.597Z,13.93
2023-04-03T12:53:01.381Z,8.98
2023-04-03T12:55:28.147Z,11.57
2023-04-03T12:57:54.888Z,11.43
2023-04-03T13:00:34.555Z,13.93
2023-04-03T13:03:04.118Z,9.30
2023-04-03T13:05:33.023Z,11.80
2023-04-03T13:08:06.119Z,15.57
2023-04-03T13:10:52.017Z,12.07
2023-04-03T13:13:18.715Z,9.95
2023-04-03T13:15:49.936Z,10.68
2023-04-03T13:18:28.600Z,15.50
2023-04-03T13:21:02.286Z,12.65
2023-04-03T13:23:29.906Z,13.10
2023-04-03T13:26:01.904Z,13.55
2023-04-03T13:28:29.053Z,14.57
2023-04-03T13:31:39.149Z,23.40
2023-04-03T13:34:14.480Z,11.05
2023-04-03T13:36:52.274Z,13.27
2023-04-03T13:39:19.637Z,13.02
2023-04-03T13:41:52.590Z,11.18
2023-04-03T13:44:22.186Z,13.90
2023-04-03T13:46:51.412Z,14.57
2023-04-03T13:49:23.819Z,15.65
2023-04-03T13:52:03.943Z,16.37
2023-04-03T13:54:39.626Z,11.93
2023-04-03T13:57:15.927Z,12.00
2023-04-03T13:59:42.708Z,10.60
2023-04-03T14:02:21.620Z,19.48
2023-04-03T14:04:59.413Z,13.52
2023-04-03T14:07:26.380Z,8.63
2023-04-03T14:09:54.004Z,11.05
2023-04-03T14:12:37.347Z,11.80
2023-04-03T14:15:18.197Z,17.17
2023-04-03T14:17:45.293Z,13.48
2023-04-03T14:20:17.324Z,15.13
2023-04-03T14:22:44.759Z,13.50
2023-04-03T14:25:11.922Z,13.30
2023-04-03T14:27:44.026Z,12.45
2023-04-03T14:30:17.805Z,11.32
2023-04-03T14:32:44.672Z,16.95
2023-04-03T14:35:11.472Z,12.05
2023-04-03T14:37:38.584Z,13.65
2023-04-03T14:40:07.210Z,18.02
2023-04-03T14:42:36.808Z,12.07
2023-04-03T14:45:07.212Z,13.70
2023-04-03T14:47:34.422Z,13.70
2023-04-03T14:50:04.370Z,11.25
2023-04-03T14:52:33.615Z,14.30
2023-04-03T14:55:01.621Z,12.07
2023-04-03T14:57:29.714Z,9.50
2023-04-03T14:59:56.915Z,18.55
2023-04-03T15:02:35.730Z,9.70
2023-04-03T15:05:06.548Z,15.63
2023-04-03T15:07:53.206Z,11.15
2023-04-03T15:10:21.666Z,14.43
2023-04-03T15:12:49.465Z,13.05
2023-04-03T15:15:18.270Z,19.35
2023-04-03T15:17:45.796Z,8.52
2023-04-03T15:20:19.249Z,9.55
2023-04-03T15:22:46.104Z,11.48
2023-04-03T15:25:13.369Z,11.52
2023-04-03T15:27:41.490Z,9.55
2023-04-03T15:30:12.462Z,7.28
2023-04-03T15:32:39.196Z,13.65
2023-04-03T15:35:06.528Z,14.80
2023-04-03T15:37:33.257Z,16.33
2023-04-03T15:40:00.240Z,21.45
2023-04-03T15:42:26.932Z,10.23
2023-04-03T15:44:53.704Z,11.77
2023-04-03T15:47:20.447Z,11.50
2023-04-03T15:49:47.263Z,14.77
2023-04-03T15:52:13.909Z,17.10
2023-04-03T15:54:40.552Z,13.20
2023-04-03T15:57:07.305Z,13.27
2023-04-03T15:59:34.007Z,14.25
2023-04-03T16:02:02.823Z,15.65
2023-04-03T16:04:30.128Z,10.10
2023-04-03T16:06:57.042Z,17.08
2023-04-03T16:09:24.124Z,13.88
2023-04-03T16:11:51.201Z,10.95
2023-04-03T16:14:17.815Z,17.88
2023-04-03T16:16:44.555Z,16.83
2023-04-03T16:19:11.569Z,9.40
2023-04-03T16:21:38.443Z,19.52
2023-04-03T16:24:05.425Z,16.55
2023-04-03T16:26:32.243Z,14.30
2023-04-03T16:28:58.835Z,11.57
2023-04-03T16:31:27.127Z,13.68
2023-04-03T16:33:54.164Z,11.55
2023-04-03T16:36:20.922Z,11.35
2023-04-03T16:38:47.801Z,14.07
2023-04-03T16:41:14.426Z,14.65
2023-04-03T16:46:07.643Z,11.70
2023-04-03T16:48:34.329Z,11.65
2023-04-03T16:51:01.298Z,12.32
2023-04-03T16:53:28.664Z,13.93
2023-04-03T16:55:55.792Z,14.38
2023-04-03T16:58:23.579Z,12.65
2023-04-03T17:00:51.512Z,17.58
2023-04-03T17:03:18.279Z,18.63
2023-04-03T17:05:48.268Z,17.42
2023-04-03T17:08:15.388Z,11.75
2023-04-03T17:10:42.002Z,13.00
2023-04-03T17:13:09.205Z,13.02
2023-04-03T17:15:36.439Z,14.30
2023-04-03T17:18:03.170Z,8.55
2023-04-03T17:20:30.801Z,11.13
2023-04-03T17:22:57.473Z,15.70
2023-04-03T17:25:24.252Z,18.85
2023-04-03T17:27:50.847Z,12.57
2023-04-03T17:30:17.817Z,14.60
2023-04-03T17:32:44.455Z,22.80
2023-04-03T17:35:11.769Z,12.23
2023-04-03T17:37:38.738Z,13.63
2023-04-03T17:40:06.202Z,11.57
2023-04-03T17:42:33.033Z,17.33
2023-04-03T17:45:01.215Z,16.42
2023-04-03T17:47:27.942Z,18.13
2023-04-03T17:49:54.618Z,13.45
2023-04-03T17:52:25.457Z,19.92
2023-04-03T17:54:52.230Z,18.35
2023-04-03T17:57:19.076Z,13.70
2023-04-03T17:59:46.618Z,13.63
2023-04-03T18:02:13.467Z,20.23
2023-04-03T18:04:40.066Z,15.52
2023-04-03T18:07:09.749Z,22.88
2023-04-03T18:09:37.751Z,16.02
2023-04-03T18:12:07.154Z,12.90
2023-04-03T18:14:36.177Z,22.63
2023-04-03T18:17:03.757Z,20.83
2023-04-03T18:19:30.774Z,19.85
2023-04-03T18:22:01.300Z,21.83
2023-04-03T18:24:28.881Z,17.17
2023-04-03T18:27:02.213Z,13.45
2023-04-03T18:29:32.848Z,15.27
2023-04-03T18:34:45.051Z,14.77
2023-04-03T18:37:11.831Z,14.70
2023-04-03T18:39:38.447Z,18.10
2023-04-03T18:42:09.823Z,21.98
2023-04-03T18:44:38.177Z,12.77
2023-04-03T18:47:05.235Z,15.98
2023-04-03T18:49:34.034Z,16.30
2023-04-03T18:52:00.768Z,17.30
2023-04-03T18:54:27.410Z,13.27
2023-04-03T18:56:54.083Z,15.10
2023-04-03T18:59:21.856Z,19.92
2023-04-03T19:01:48.671Z,20.15
2023-04-03T19:04:15.874Z,9.38
2023-04-03T19:06:42.720Z,17.17
2023-04-03T19:09:09.451Z,18.00
2023-04-03T19:11:36.816Z,12.35
2023-04-03T19:14:15.883Z,12.23
2023-04-03T19:16:43.930Z,18.55
2023-04-03T19:19:10.677Z,19.60
2023-04-03T19:21:41.153Z,15.52
2023-04-03T19:24:10.336Z,22.13
2023-04-03T19:26:37.472Z,22.05
2023-04-03T19:29:04.237Z,16.55
2023-04-03T19:31:33.772Z,19.65
2023-04-03T19:34:01.308Z,21.98
2023-04-03T19:36:28.022Z,16.40
2023-04-03T19:38:54.651Z,13.18
2023-04-03T19:41:25.711Z,26.67
2023-04-03T19:43:55.078Z,19.45
2023-04-03T19:46:26.989Z,18.55
2023-04-03T19:48:54.213Z,16.08
2023-04-03T19:51:20.936Z,15.35
2023-04-03T19:53:48.679Z,13.60
2023-04-03T19:56:18.572Z,20.00
2023-04-03T19:58:45.772Z,16.42
2023-04-03T20:01:12.566Z,16.45
2023-04-03T20:03:40.005Z,16.05
2023-04-03T20:06:06.743Z,19.80
2023-04-03T20:08:33.826Z,15.55
2023-04-03T20:11:00.773Z,13.95
2023-04-03T20:13:27.402Z,29.67
2023-04-03T20:15:54.105Z,25.70
2023-04-03T20:18:21.103Z,14.73
2023-04-03T20:20:59.514Z,15.50
2023-04-03T20:23:27.346Z,33.13
2023-04-03T20:26:06.538Z,19.63
2023-04-03T20:28:38.166Z,18.50
2023-04-03T20:31:05.905Z,15.35
2023-04-03T20:33:32.552Z,21.95
2023-04-03T20:35:59.247Z,14.10
2023-04-03T20:38:26.274Z,22.67
2023-04-03T20:40:53.219Z,12.43
2023-04-03T20:43:21.903Z,18.10
2023-04-03T20:45:49.344Z,13.27
2023-04-03T20:48:20.470Z,25.73
2023-04-03T20:50:47.664Z,26.65
2023-04-03T20:53:17.947Z,22.17
2023-04-03T20:56:01.275Z,19.20
2023-04-03T20:58:30.346Z,21.05
2023-04-03T21:00:57.391Z,19.33
2023-04-03T21:03:27.367Z,15.55
2023-04-03T21:05:59.883Z,14.98
2023-04-03T21:09:05.075Z,14.23
2023-04-03T21:12:09.106Z,15.57
2023-04-03T21:17:21.285Z,11.73
2023-04-03T21:19:48.772Z,15.60
2023-04-03T21:22:16.316Z,13.00
2023-04-03T21:24:44.360Z,24.90
2023-04-03T21:27:11.583Z,13.70
2023-04-03T21:29:38.842Z,21.05
2023-04-03T21:32:05.830Z,15.57
2023-04-03T21:34:39.744Z,12.88
2023-04-03T21:37:08.823Z,22.50
2023-04-03T21:39:35.988Z,16.95
2023-04-03T21:42:02.727Z,16.85
2023-04-03T21:44:30.049Z,18.77
2023-04-03T21:46:56.708Z,17.75
2023-04-03T21:49:25.052Z,14.60
2023-04-03T21:51:52.407Z,16.65
2023-04-03T21:54:19.494Z,17.05
2023-04-03T21:56:48.123Z,22.38
2023-04-03T21:59:15.293Z,20.77
2023-04-03T22:01:42.189Z,25.40
2023-04-03T22:04:08.905Z,18.25
2023-04-03T22:06:37.473Z,17.85
2023-04-03T22:09:04.204Z,14.20
2023-04-03T22:11:31.289Z,13.55
2023-04-03T22:13:58.216Z,20.48
2023-04-03T22:16:25.194Z,25.55
2023-04-03T22:18:52.961Z,20.02
2023-04-03T22:21:20.910Z,16.90
2023-04-03T22:23:47.574Z,22.48
2023-04-03T22:26:14.520Z,16.58
2023-04-03T22:28:44.679Z,17.75
2023-04-03T22:31:14.398Z,21.95
2023-04-03T22:33:42.611Z,17.65
2023-04-03T22:36:10.954Z,18.08
2023-04-03T22:38:39.003Z,20.88
2023-04-03T22:41:07.617Z,25.42
2023-04-03T22:43:36.430Z,24.95
2023-04-03T22:46:04.778Z,17.35
2023-04-03T22:48:31.944Z,20.73
2023-04-03T22:51:00.115Z,21.00
2023-04-03T22:53:27.667Z,22.90
2023-04-03T22:55:59.094Z,25.42
2023-04-03T22:58:26.636Z,22.42
2023-04-03T23:01:05.248Z,17.75
2023-04-03T23:03:32.227Z,20.65
2023-04-03T23:05:58.979Z,12.63
2023-04-03T23:08:25.585Z,30.55
2023-04-03T23:10:56.621Z,19.65
2023-04-03T23:13:27.179Z,23.30
2023-04-03T23:15:58.797Z,17.27
2023-04-03T23:18:30.373Z,22.02
2023-04-03T23:20:59.216Z,21.42
2023-04-03T23:23:25.992Z,16.88
2023-04-03T23:25:53.940Z,28.77
2023-04-03T23:28:21.045Z,35.88
2023-04-03T23:30:48.212Z,30.45
2023-04-03T23:33:15.145Z,13.95
2023-04-03T23:35:46.708Z,17.13
2023-04-03T23:38:14.143Z,20.90
2023-04-03T23:40:45.332Z,19.17
2023-04-03T23:43:12.719Z,14.90
2023-04-03T23:45:39.993Z,24.00
2023-04-03T23:48:06.923Z,13.15
2023-04-03T23:50:33.721Z,24.20
2023-04-03T23:53:00.973Z,23.50
2023-04-03T23:55:27.668Z,19.70
2023-04-03T23:57:54.351Z,15.63
